Time;durP1;ratioP1;P1;durP2;ratioP2;P2;SDS_P1;SDS_P2;PMS_P1;PMS_P2;Temp;Humidity;BMP_temperature;BMP_pressure;BME280_temperature;BME280_humidity;BME280_pressure;Samples;Min_cycle;Max_cycle;Signal;HPM_P1;HPM_P2
2023/07/29 16:53:15;;;;;;;;;;;21.60;69.90;;;21.00;nan;95958.53;6198889;22;19920;-91
2023/07/29 16:56:14;;;;;;;;;;;21.60;70.40;;;21.00;nan;95955.75;6146506;23;19966;-91
2023/07/29 16:59:02;;;;;;;;;;;21.60;70.40;;;20.96;nan;95946.50;6196027;23;20263;-92
2023/07/29 17:01:49;;;;;;;;;;;21.60;70.70;;;20.96;nan;95954.84;6146694;23;19927;-91
2023/07/29 17:04:31;;;;;;;;;;;21.60;70.80;;;20.93;nan;95947.97;6170646;23;19935;-91
2023/07/29 17:07:02;;;;;;;;;;;21.60;71.10;;;20.94;nan;95957.16;6122263;23;19920;-92
2023/07/29 17:09:38;;;;;;;;;;;21.60;71.30;;;20.92;nan;95957.47;6146583;23;20250;-93
2023/07/29 17:12:15;;;;;;;;;;;21.60;71.70;;;20.92;nan;95951.13;6172936;23;19933;-92
2023/07/29 17:14:44;;;;;;;;;;;21.50;71.90;;;20.92;nan;95951.13;6122390;23;19968;-91
2023/07/29 17:17:13;;;;;;;;;;;21.50;72.30;;;20.91;nan;95955.06;6170865;23;20240;-91
2023/07/29 17:19:44;;;;;;;;;;;21.50;72.70;;;20.91;nan;95953.09;6146361;23;20332;-91
2023/07/29 17:22:13;;;;;;;;;;;21.50;73.30;;;20.91;nan;95950.31;6122676;23;19920;-91
2023/07/29 17:24:44;;;;;;;;;;;21.50;73.60;;;20.92;nan;95959.47;6170987;23;19920;-91
2023/07/29 17:27:13;;;;;;;;;;;21.50;73.60;;;20.90;nan;95953.44;6147306;23;19920;-91
2023/07/29 17:29:45;;;;;;;;;;;21.50;73.50;;;20.91;nan;95955.06;6122106;23;19927;-92
2023/07/29 17:32:15;;;;;;;;;;;21.50;74.60;;;20.90;nan;95953.44;6147604;23;19927;-92
2023/07/29 17:34:46;;;;;;;;;;;21.50;74.40;;;20.91;nan;95949.47;6145453;23;19920;-92
2023/07/29 17:37:20;;;;;;;;;;;21.50;74.90;;;20.90;nan;95948.69;6161551;23;19920;-91
2023/07/29 17:39:56;;;;;;;;;;;21.50;76.90;;;20.89;nan;95947.06;6162657;23;19920;-92
2023/07/29 17:42:32;;;;;;;;;;;21.50;76.90;;;20.89;nan;95946.22;6187454;23;19926;-92
2023/07/29 17:45:03;;;;;;;;;;;21.50;77.00;;;20.88;nan;95955.72;6186628;23;19924;-92
2023/07/29 17:47:39;;;;;;;;;;;21.50;77.20;;;20.85;nan;95952.47;6161241;23;19920;-92
2023/07/29 17:50:09;;;;;;;;;;;21.50;77.30;;;20.84;nan;95962.00;6116582;23;19927;-92
2023/07/29 17:52:42;;;;;;;;;;;21.50;77.50;;;20.82;nan;95953.19;6158173;23;19920;-92
2023/07/29 17:55:22;;;;;;;;;;;21.50;77.30;;;20.82;nan;95960.69;6160890;23;19935;-92
2023/07/29 17:57:52;;;;;;;;;;;21.40;77.40;;;20.80;nan;95966.63;6157847;23;19927;-91
2023/07/29 18:00:23;;;;;;;;;;;21.40;77.20;;;20.78;nan;95963.38;6151509;23;19940;-91
2023/07/29 18:02:55;;;;;;;;;;;21.40;77.20;;;20.78;nan;95968.13;6197179;23;19920;-92
2023/07/29 18:05:30;;;;;;;;;;;21.40;77.20;;;20.76;nan;95962.09;6147739;23;19927;-92
2023/07/29 18:08:00;;;;;;;;;;;21.30;76.90;;;20.73;nan;95960.75;6171342;23;19920;-92
2023/07/29 18:10:30;;;;;;;;;;;21.40;77.10;;;20.70;nan;95969.81;6171300;23;20328;-92
2023/07/29 18:13:01;;;;;;;;;;;21.40;76.80;;;20.68;nan;95969.34;6146744;23;19919;-92
2023/07/29 18:15:33;;;;;;;;;;;21.30;76.50;;;20.65;nan;95970.00;6146998;23;19924;-92
2023/07/29 18:18:04;;;;;;;;;;;21.30;76.40;;;20.62;nan;95981.81;6171769;23;19930;-92
2023/07/29 18:20:40;;;;;;;;;;;21.30;76.40;;;20.60;nan;95979.38;6171040;23;19920;-92
2023/07/29 18:23:23;;;;;;;;;;;21.20;76.40;;;20.57;nan;95993.16;6149700;23;19920;-92
2023/07/29 18:25:57;;;;;;;;;;;21.10;76.50;;;20.54;nan;96002.97;6147301;23;20335;-92
2023/07/29 18:28:26;;;;;;;;;;;21.10;76.30;;;20.50;nan;96007.63;6171638;23;19968;-92
2023/07/29 18:30:55;;;;;;;;;;;21.10;76.30;;;20.47;nan;96005.50;6147632;23;20236;-92
2023/07/29 18:33:25;;;;;;;;;;;21.00;75.90;;;20.42;nan;96009.31;6147177;23;19920;-92
2023/07/29 18:35:54;;;;;;;;;;;21.10;76.50;;;20.40;nan;96014.41;6123004;23;19927;-92
2023/07/29 18:38:23;;;;;;;;;;;21.00;76.10;;;20.37;nan;96010.34;6147222;23;19920;-92
2023/07/29 18:40:54;;;;;;;;;;;21.00;76.00;;;20.35;nan;96004.28;6146892;23;20266;-92
2023/07/29 18:43:23;;;;;;;;;;;21.00;75.90;;;20.32;nan;96006.94;6146272;23;19927;-92
2023/07/29 18:45:59;;;;;;;;;;;20.90;76.20;;;20.29;nan;96004.84;6172156;23;20336;-92
2023/07/29 18:48:28;;;;;;;;;;;20.90;76.00;;;20.26;nan;96013.84;6170898;23;19920;-92
2023/07/29 18:51:00;;;;;;;;;;;20.90;76.10;;;20.23;nan;96010.59;6147857;23;19920;-92
2023/07/29 18:53:29;;;;;;;;;;;20.80;76.10;;;20.22;nan;96014.50;6146768;23;19927;-92
2023/07/29 18:56:00;;;;;;;;;;;20.80;76.30;;;20.20;nan;96010.44;6147307;23;19927;-92
2023/07/29 18:58:30;;;;;;;;;;;20.80;76.10;;;20.18;nan;96019.13;6147336;23;19920;-92
2023/07/29 19:01:00;;;;;;;;;;;20.70;76.40;;;20.17;nan;96023.06;6122599;23;19920;-92
2023/07/29 19:03:29;;;;;;;;;;;20.70;76.50;;;20.15;nan;96021.75;6147225;23;19927;-92
2023/07/29 19:05:59;;;;;;;;;;;20.70;76.50;;;20.12;nan;96020.47;6146824;23;19920;-92
2023/07/29 19:08:29;;;;;;;;;;;20.70;76.20;;;20.11;nan;96024.41;6146924;23;19920;-92
2023/07/29 19:11:01;;;;;;;;;;;20.70;76.30;;;20.07;nan;96015.13;6147167;23;20252;-92
2023/07/29 19:13:31;;;;;;;;;;;20.70;76.20;;;20.04;nan;96027.72;6122053;23;19927;-92
2023/07/29 19:16:02;;;;;;;;;;;20.60;76.30;;;20.02;nan;96026.44;6123254;23;19942;-92
2023/07/29 19:18:34;;;;;;;;;;;20.60;76.30;;;20.00;nan;96025.94;6146901;23;19927;-92
2023/07/29 19:21:19;;;;;;;;;;;20.60;76.10;;;19.96;nan;96025.81;6171857;23;19920;-92
2023/07/29 19:23:54;;;;;;;;;;;20.60;76.10;;;19.91;nan;96029.59;6146582;23;19920;-92
2023/07/29 19:26:24;;;;;;;;;;;20.50;76.00;;;19.90;nan;96024.38;6171292;23;19924;-92
2023/07/29 19:28:54;;;;;;;;;;;20.40;75.90;;;19.86;nan;96031.72;6146948;23;19919;-92
2023/07/29 19:31:28;;;;;;;;;;;20.40;76.00;;;19.83;nan;96037.94;6169944;23;19927;-92
2023/07/29 19:34:25;;;;;;;;;;;;;;;;;;;;;
2023/07/29 19:36:59;;;;;;;;;;;20.40;76.00;;;19.76;nan;96038.47;6146309;23;19920;-92
2023/07/29 19:39:32;;;;;;;;;;;20.30;76.10;;;19.73;nan;96039.97;6147065;23;19927;-92
2023/07/29 19:42:06;;;;;;;;;;;20.30;76.20;;;19.72;nan;96040.28;6141679;23;19920;-92
2023/07/29 19:44:36;;;;;;;;;;;20.30;76.10;;;19.70;nan;96037.84;6171051;23;19920;-92
2023/07/29 19:47:07;;;;;;;;;;;20.30;76.10;;;19.69;nan;96038.16;6147586;23;19920;-92
2023/07/29 19:49:42;;;;;;;;;;;20.30;76.10;;;19.66;nan;96034.09;6146529;23;20358;-93
2023/07/29 19:52:45;;;;;;;;;;;;;;;;;;;;;
2023/07/29 19:55:31;;;;;;;;;;;20.20;76.30;;;19.63;nan;96038.38;6171041;23;20312;-92
2023/07/29 20:01:15;;;;;;;;;;;20.20;76.50;;;19.59;nan;96042.16;6169986;23;19935;-92
2023/07/29 20:03:45;;;;;;;;;;;20.20;76.60;;;19.58;nan;96041.31;6195772;23;19968;-91
2023/07/29 20:06:14;;;;;;;;;;;20.20;76.80;;;19.58;nan;96035.78;6170932;23;20263;-92
2023/07/29 20:08:43;;;;;;;;;;;20.10;76.80;;;19.56;nan;96038.06;6146044;23;19924;-92
2023/07/29 20:11:14;;;;;;;;;;;20.10;76.60;;;19.53;nan;96047.06;6147157;23;19924;-92
2023/07/29 20:13:46;;;;;;;;;;;20.10;76.50;;;19.51;nan;96041.03;6171122;23;19931;-92
2023/07/29 20:16:14;;;;;;;;;;;20.10;76.50;;;19.49;nan;96039.75;6147295;23;20282;-92
2023/07/29 20:18:44;;;;;;;;;;;20.00;76.50;;;19.45;nan;96048.75;6148223;23;20358;-92
2023/07/29 20:21:14;;;;;;;;;;;20.00;76.40;;;19.45;nan;96050.69;6147891;23;19920;-92
2023/07/29 20:23:44;;;;;;;;;;;20.00;76.40;;;19.40;nan;96045.31;6147680;23;19927;-92
2023/07/29 20:26:13;;;;;;;;;;;20.00;77.40;;;19.39;nan;96049.25;6171640;23;19923;-92
2023/07/29 20:28:48;;;;;;;;;;;20.00;76.50;;;19.36;nan;96052.69;6148460;23;19920;-92
2023/07/29 20:31:21;;;;;;;;;;;20.00;76.40;;;19.34;nan;96053.03;6147538;23;19920;-92
2023/07/29 20:33:52;;;;;;;;;;;19.90;76.40;;;19.31;nan;96054.47;6146967;23;19927;-92
2023/07/29 20:36:22;;;;;;;;;;;19.90;76.50;;;19.29;nan;96056.78;6123601;23;19920;-91
2023/07/29 20:38:52;;;;;;;;;;;19.80;76.50;;;19.26;nan;96054.69;6172433;23;19926;-92
2023/07/29 20:41:23;;;;;;;;;;;19.80;76.40;;;19.23;nan;96055.31;6147237;23;20344;-92
2023/07/29 20:43:55;;;;;;;;;;;19.80;76.30;;;19.18;nan;96055.50;6147271;23;20283;-92
2023/07/29 20:46:24;;;;;;;;;;;19.70;76.40;;;19.15;nan;96056.19;6171970;23;20355;-91
2023/07/29 20:48:57;;;;;;;;;;;19.70;76.40;;;19.12;nan;96049.31;6148170;23;19920;-91
2023/07/29 20:51:27;;;;;;;;;;;19.70;76.70;;;19.12;nan;96056.81;6123573;23;20354;-92
2023/07/29 20:53:56;;;;;;;;;;;19.70;76.80;;;19.10;nan;96051.63;6146549;23;19927;-91
2023/07/29 20:56:27;;;;;;;;;;;19.70;77.00;;;19.10;nan;96056.34;6171482;23;19951;-92
2023/07/29 20:58:59;;;;;;;;;;;19.70;76.90;;;19.09;nan;96057.47;6148106;23;19920;-91
2023/07/29 21:01:28;;;;;;;;;;;19.60;76.70;;;19.06;nan;96063.69;6171951;23;19920;-92
2023/07/29 21:04:02;;;;;;;;;;;19.60;76.40;;;19.00;nan;96057.50;6147165;23;19920;-92
2023/07/29 21:06:31;;;;;;;;;;;19.60;76.50;;;18.99;nan;96065.00;6171642;23;19920;-92
2023/07/29 21:09:02;;;;;;;;;;;19.50;76.70;;;18.95;nan;96064.03;6147654;23;19920;-91
2023/07/29 21:11:31;;;;;;;;;;;19.50;76.60;;;18.93;nan;96065.47;6172363;23;19920;-92
2023/07/29 21:14:03;;;;;;;;;;;19.50;77.00;;;18.92;nan;96066.63;6171115;23;19920;-92
2023/07/29 21:16:34;;;;;;;;;;;19.50;76.50;;;18.89;nan;96058.94;6148201;23;19920;-92
2023/07/29 21:19:03;;;;;;;;;;;19.40;76.60;;;18.86;nan;96060.44;6147705;23;19924;-92
2023/07/29 21:21:33;;;;;;;;;;;19.40;76.80;;;18.86;nan;96060.44;6171419;23;19920;-92
2023/07/29 21:24:04;;;;;;;;;;;19.40;77.00;;;18.86;nan;96063.19;6121697;23;19930;-92
2023/07/29 21:26:34;;;;;;;;;;;19.40;77.10;;;18.86;nan;96060.44;6171456;23;19932;-92
2023/07/29 21:29:10;;;;;;;;;;;19.40;77.00;;;18.87;nan;96056.50;6147738;23;19924;-92
2023/07/29 21:31:40;;;;;;;;;;;19.40;76.80;;;18.84;nan;96060.78;6171269;23;19931;-91
2023/07/29 21:34:13;;;;;;;;;;;19.40;76.70;;;18.82;nan;96070.53;6147846;23;20255;-92
2023/07/29 21:36:44;;;;;;;;;;;19.40;76.80;;;18.81;nan;96063.34;6194132;23;19920;-92
2023/07/29 21:39:17;;;;;;;;;;;19.40;76.50;;;18.79;nan;96065.63;6147408;23;19927;-92
2023/07/29 21:41:48;;;;;;;;;;;19.40;76.40;;;18.76;nan;96066.31;6122760;23;19927;-92
2023/07/29 21:44:20;;;;;;;;;;;19.30;76.60;;;18.74;nan;96071.38;6122505;23;19920;-92
2023/07/29 21:46:51;;;;;;;;;;;19.30;76.60;;;18.71;nan;96070.88;6171802;23;19921;-92
2023/07/29 21:49:20;;;;;;;;;;;19.30;76.80;;;18.73;nan;96075.28;6147386;23;19920;-92
2023/07/29 21:51:52;;;;;;;;;;;19.30;77.00;;;18.73;nan;96069.72;6147013;23;20229;-92
2023/07/29 21:54:23;;;;;;;;;;;19.30;77.00;;;18.71;nan;96070.06;6147427;23;19927;-92
2023/07/29 21:56:54;;;;;;;;;;;19.30;77.00;;;18.73;nan;96061.41;6147399;23;20244;-92
2023/07/29 21:59:25;;;;;;;;;;;19.30;76.80;;;18.68;nan;96063.19;6147267;23;20372;-91
2023/07/29 22:01:56;;;;;;;;;;;19.30;76.70;;;18.68;nan;96056.84;6147539;23;19927;-91
2023/07/29 22:04:26;;;;;;;;;;;19.30;76.70;;;18.68;nan;96065.97;6171718;23;19931;-92
2023/07/29 22:06:57;;;;;;;;;;;19.30;76.80;;;18.65;nan;96066.63;6147134;23;19920;-92
2023/07/29 22:09:27;;;;;;;;;;;19.20;76.60;;;18.63;nan;96063.38;6147503;23;19920;-92
2023/07/29 22:12:00;;;;;;;;;;;19.20;76.80;;;18.61;nan;96060.13;6147200;23;19931;-92
2023/07/29 22:14:35;;;;;;;;;;;19.20;77.00;;;18.59;nan;96070.72;6147523;23;20335;-92
2023/07/29 22:17:06;;;;;;;;;;;19.20;77.00;;;18.57;nan;96063.88;6171644;23;19964;-92
2023/07/29 22:19:37;;;;;;;;;;;19.20;76.90;;;18.57;nan;96073.00;6147277;23;19920;-92
2023/07/29 22:22:07;;;;;;;;;;;19.20;77.20;;;18.56;nan;96068.59;6147386;23;19927;-92
2023/07/29 22:24:40;;;;;;;;;;;19.20;77.20;;;18.55;nan;96066.94;6147548;23;19920;-92
2023/07/29 22:27:11;;;;;;;;;;;19.20;77.10;;;18.54;nan;96071.69;6171634;23;19920;-92
2023/07/29 22:29:45;;;;;;;;;;;19.10;77.20;;;18.55;nan;96061.41;6146591;23;19920;-92
2023/07/29 22:32:16;;;;;;;;;;;19.20;77.10;;;18.54;nan;96065.31;6147027;23;19928;-92
2023/07/29 22:34:48;;;;;;;;;;;19.10;77.10;;;18.52;nan;96056.53;6171214;23;19920;-92
